sensor_id;sensor_type;location;lat;lon;timestamp;P1;durP1;ratioP1;P2;durP2;ratioP2
77802;SDS011;66993;48.256;16.422;2023-07-02T00:00:08;5.7;;;2.9;;
77802;SDS011;66993;48.256;16.422;2023-07-02T00:05:08;4.6;;;2.9;;
77802;SDS011;66993;48.256;16.422;2023-07-02T00:10:10;5.9;;;3.1;;
77802;SDS011;66993;48.256;16.422;2023-07-02T00:15:11;5.6;;;3.2;;
77802;SDS011;66993;48.256;16.422;2023-07-02T00:20:12;5.7;;;3.2;;
77802;SDS011;66993;48.256;16.422;2023-07-02T00:25:13;4.7;;;2.9;;
77802;SDS011;66993;48.256;16.422;2023-07-02T00:30:14;5.0;;;2.7;;
77802;SDS011;66993;48.256;16.422;2023-07-02T00:35:16;5.6;;;3.5;;
77802;SDS011;66993;48.256;16.422;2023-07-02T00:40:17;5.9;;;3.0;;
77802;SDS011;66993;48.256;16.422;2023-07-02T00:45:18;5.1;;;3.0;;
77802;SDS011;66993;48.256;16.422;2023-07-02T00:50:19;4.9;;;3.2;;
77802;SDS011;66993;48.256;16.422;2023-07-02T00:55:21;6.0;;;3.2;;
77802;SDS011;66993;48.256;16.422;2023-07-02T01:00:22;4.5;;;3.1;;
77802;SDS011;66993;48.256;16.422;2023-07-02T01:05:23;4.9;;;3.0;;
77802;SDS011;66993;48.256;16.422;2023-07-02T01:10:24;5.3;;;3.2;;
77802;SDS011;66993;48.256;16.422;2023-07-02T01:15:26;6.2;;;3.2;;
77802;SDS011;66993;48.256;16.422;2023-07-02T01:20:27;5.1;;;3.0;;
77802;SDS011;66993;48.256;16.422;2023-07-02T01:25:29;5.3;;;3.2;;
77802;SDS011;66993;48.256;16.422;2023-07-02T01:30:29;6.0;;;3.2;;
77802;SDS011;66993;48.256;16.422;2023-07-02T01:35:31;4.8;;;3.1;;
77802;SDS011;66993;48.256;16.422;2023-07-02T01:40:32;4.6;;;3.1;;
77802;SDS011;66993;48.256;16.422;2023-07-02T01:45:33;4.9;;;2.8;;
77802;SDS011;66993;48.256;16.422;2023-07-02T01:50:34;4.7;;;2.9;;
77802;SDS011;66993;48.256;16.422;2023-07-02T01:55:36;6.9;;;3.1;;
77802;SDS011;66993;48.256;16.422;2023-07-02T02:00:37;5.3;;;3.3;;
77802;SDS011;66993;48.256;16.422;2023-07-02T02:05:38;5.1;;;3.5;;
77802;SDS011;66993;48.256;16.422;2023-07-02T02:10:40;6.9;;;3.3;;
77802;SDS011;66993;48.256;16.422;2023-07-02T02:15:41;7.1;;;3.4;;
77802;SDS011;66993;48.256;16.422;2023-07-02T02:20:42;5.2;;;3.3;;
77802;SDS011;66993;48.256;16.422;2023-07-02T02:25:44;6.4;;;3.5;;
77802;SDS011;66993;48.256;16.422;2023-07-02T02:30:45;5.9;;;3.3;;
77802;SDS011;66993;48.256;16.422;2023-07-02T02:35:46;5.1;;;2.9;;
77802;SDS011;66993;48.256;16.422;2023-07-02T02:40:47;4.9;;;3.1;;
77802;SDS011;66993;48.256;16.422;2023-07-02T02:45:49;6.1;;;3.3;;
77802;SDS011;66993;48.256;16.422;2023-07-02T02:50:50;4.8;;;3.0;;
77802;SDS011;66993;48.256;16.422;2023-07-02T02:55:51;5.9;;;3.2;;
77802;SDS011;66993;48.256;16.422;2023-07-02T03:00:53;6.6;;;3.0;;
77802;SDS011;66993;48.256;16.422;2023-07-02T03:05:54;5.8;;;3.1;;
77802;SDS011;66993;48.256;16.422;2023-07-02T03:10:55;7.0;;;3.5;;
77802;SDS011;66993;48.256;16.422;2023-07-02T03:15:56;5.1;;;3.3;;
77802;SDS011;66993;48.256;16.422;2023-07-02T03:20:58;5.7;;;3.4;;
77802;SDS011;66993;48.256;16.422;2023-07-02T03:25:59;5.6;;;3.2;;
77802;SDS011;66993;48.256;16.422;2023-07-02T03:31:00;6.4;;;3.4;;
77802;SDS011;66993;48.256;16.422;2023-07-02T03:36:01;5.4;;;3.4;;
77802;SDS011;66993;48.256;16.422;2023-07-02T03:41:03;6.1;;;3.6;;
77802;SDS011;66993;48.256;16.422;2023-07-02T03:46:04;6.0;;;3.2;;
77802;SDS011;66993;48.256;16.422;2023-07-02T03:51:05;6.3;;;3.4;;
77802;SDS011;66993;48.256;16.422;2023-07-02T03:56:07;5.8;;;3.3;;
77802;SDS011;66993;48.256;16.422;2023-07-02T04:01:08;4.9;;;3.1;;
77802;SDS011;66993;48.256;16.422;2023-07-02T04:06:09;6.0;;;3.7;;
77802;SDS011;66993;48.256;16.422;2023-07-02T04:11:11;5.8;;;3.2;;
77802;SDS011;66993;48.256;16.422;2023-07-02T04:16:12;4.8;;;3.1;;
77802;SDS011;66993;48.256;16.422;2023-07-02T04:21:13;5.1;;;3.2;;
77802;SDS011;66993;48.256;16.422;2023-07-02T04:26:14;5.5;;;3.5;;
77802;SDS011;66993;48.256;16.422;2023-07-02T04:31:15;5.8;;;3.5;;
77802;SDS011;66993;48.256;16.422;2023-07-02T04:36:17;5.7;;;3.5;;
77802;SDS011;66993;48.256;16.422;2023-07-02T04:41:18;6.0;;;3.4;;
77802;SDS011;66993;48.256;16.422;2023-07-02T04:46:20;7.4;;;3.7;;
77802;SDS011;66993;48.256;16.422;2023-07-02T04:51:21;7.2;;;3.5;;
77802;SDS011;66993;48.256;16.422;2023-07-02T04:56:23;5.8;;;3.5;;
77802;SDS011;66993;48.256;16.422;2023-07-02T05:01:23;5.6;;;3.5;;
77802;SDS011;66993;48.256;16.422;2023-07-02T05:06:25;6.8;;;3.2;;
77802;SDS011;66993;48.256;16.422;2023-07-02T05:11:26;6.0;;;3.4;;
77802;SDS011;66993;48.256;16.422;2023-07-02T05:16:27;5.0;;;3.2;;
77802;SDS011;66993;48.256;16.422;2023-07-02T05:21:28;4.8;;;3.2;;
77802;SDS011;66993;48.256;16.422;2023-07-02T05:26:30;4.7;;;2.8;;
77802;SDS011;66993;48.256;16.422;2023-07-02T05:31:31;4.8;;;2.6;;
77802;SDS011;66993;48.256;16.422;2023-07-02T05:36:33;5.4;;;2.8;;
77802;SDS011;66993;48.256;16.422;2023-07-02T05:41:33;4.8;;;3.0;;
77802;SDS011;66993;48.256;16.422;2023-07-02T05:46:35;5.7;;;3.3;;
77802;SDS011;66993;48.256;16.422;2023-07-02T05:51:36;5.5;;;3.0;;
77802;SDS011;66993;48.256;16.422;2023-07-02T05:56:37;5.4;;;2.7;;
77802;SDS011;66993;48.256;16.422;2023-07-02T06:01:39;5.5;;;3.0;;
77802;SDS011;66993;48.256;16.422;2023-07-02T06:06:40;5.4;;;3.1;;
77802;SDS011;66993;48.256;16.422;2023-07-02T06:11:41;5.7;;;3.6;;
77802;SDS011;66993;48.256;16.422;2023-07-02T06:16:42;5.8;;;3.7;;
77802;SDS011;66993;48.256;16.422;2023-07-02T06:21:43;4.9;;;3.5;;
77802;SDS011;66993;48.256;16.422;2023-07-02T06:26:45;5.7;;;3.8;;
77802;SDS011;66993;48.256;16.422;2023-07-02T06:31:46;7.5;;;3.6;;
77802;SDS011;66993;48.256;16.422;2023-07-02T06:36:47;6.5;;;4.0;;
77802;SDS011;66993;48.256;16.422;2023-07-02T06:41:49;6.9;;;3.9;;
77802;SDS011;66993;48.256;16.422;2023-07-02T06:46:50;6.1;;;3.5;;
77802;SDS011;66993;48.256;16.422;2023-07-02T06:51:52;5.3;;;3.5;;
77802;SDS011;66993;48.256;16.422;2023-07-02T06:56:52;5.6;;;3.3;;
77802;SDS011;66993;48.256;16.422;2023-07-02T07:01:54;5.1;;;3.0;;
77802;SDS011;66993;48.256;16.422;2023-07-02T07:06:55;5.0;;;2.9;;
77802;SDS011;66993;48.256;16.422;2023-07-02T07:11:56;4.7;;;3.0;;
77802;SDS011;66993;48.256;16.422;2023-07-02T07:16:58;5.1;;;2.9;;
77802;SDS011;66993;48.256;16.422;2023-07-02T07:21:59;5.3;;;2.8;;
77802;SDS011;66993;48.256;16.422;2023-07-02T07:27:00;4.4;;;2.7;;
77802;SDS011;66993;48.256;16.422;2023-07-02T07:32:01;3.7;;;2.4;;
77802;SDS011;66993;48.256;16.422;2023-07-02T07:37:03;4.2;;;2.4;;
77802;SDS011;66993;48.256;16.422;2023-07-02T07:42:04;3.9;;;2.2;;
77802;SDS011;66993;48.256;16.422;2023-07-02T07:47:05;3.8;;;2.4;;
77802;SDS011;66993;48.256;16.422;2023-07-02T07:52:07;3.2;;;2.3;;
77802;SDS011;66993;48.256;16.422;2023-07-02T07:57:08;3.2;;;2.3;;
77802;SDS011;66993;48.256;16.422;2023-07-02T08:02:09;3.7;;;2.2;;
77802;SDS011;66993;48.256;16.422;2023-07-02T08:07:10;4.6;;;2.6;;
77802;SDS011;66993;48.256;16.422;2023-07-02T08:12:12;3.5;;;2.4;;
77802;SDS011;66993;48.256;16.422;2023-07-02T08:17:13;4.9;;;3.2;;
77802;SDS011;66993;48.256;16.422;2023-07-02T08:22:15;4.5;;;3.2;;
77802;SDS011;66993;48.256;16.422;2023-07-02T08:27:16;4.7;;;3.1;;
77802;SDS011;66993;48.256;16.422;2023-07-02T08:32:17;4.4;;;2.7;;
77802;SDS011;66993;48.256;16.422;2023-07-02T08:37:20;4.7;;;2.8;;
77802;SDS011;66993;48.256;16.422;2023-07-02T08:42:19;4.2;;;3.0;;
77802;SDS011;66993;48.256;16.422;2023-07-02T08:47:21;4.1;;;2.8;;
77802;SDS011;66993;48.256;16.422;2023-07-02T08:52:22;3.7;;;2.5;;
77802;SDS011;66993;48.256;16.422;2023-07-02T08:57:24;4.5;;;2.7;;
77802;SDS011;66993;48.256;16.422;2023-07-02T09:02:31;4.4;;;2.8;;
77802;SDS011;66993;48.256;16.422;2023-07-02T09:07:27;3.9;;;2.8;;
77802;SDS011;66993;48.256;16.422;2023-07-02T09:12:28;5.1;;;2.6;;
77802;SDS011;66993;48.256;16.422;2023-07-02T09:17:29;4.3;;;2.7;;
77802;SDS011;66993;48.256;16.422;2023-07-02T09:22:30;4.0;;;2.7;;
77802;SDS011;66993;48.256;16.422;2023-07-02T09:27:34;3.5;;;2.6;;
77802;SDS011;66993;48.256;16.422;2023-07-02T09:32:32;4.9;;;2.7;;
77802;SDS011;66993;48.256;16.422;2023-07-02T09:37:34;4.2;;;2.7;;
77802;SDS011;66993;48.256;16.422;2023-07-02T09:42:35;8.2;;;5.9;;
77802;SDS011;66993;48.256;16.422;2023-07-02T09:47:37;5.2;;;3.8;;
77802;SDS011;66993;48.256;16.422;2023-07-02T09:52:37;4.5;;;2.6;;
77802;SDS011;66993;48.256;16.422;2023-07-02T09:57:39;4.5;;;3.1;;
77802;SDS011;66993;48.256;16.422;2023-07-02T10:02:40;5.0;;;3.0;;
77802;SDS011;66993;48.256;16.422;2023-07-02T10:07:42;5.3;;;2.6;;
77802;SDS011;66993;48.256;16.422;2023-07-02T10:12:45;4.4;;;3.0;;
77802;SDS011;66993;48.256;16.422;2023-07-02T10:17:53;3.8;;;2.6;;
77802;SDS011;66993;48.256;16.422;2023-07-02T10:22:46;4.5;;;2.8;;
77802;SDS011;66993;48.256;16.422;2023-07-02T10:27:47;4.1;;;2.6;;
77802;SDS011;66993;48.256;16.422;2023-07-02T10:32:48;4.1;;;2.5;;
77802;SDS011;66993;48.256;16.422;2023-07-02T10:37:49;4.3;;;2.5;;
77802;SDS011;66993;48.256;16.422;2023-07-02T10:42:51;4.1;;;2.7;;
77802;SDS011;66993;48.256;16.422;2023-07-02T10:47:52;4.8;;;2.7;;
77802;SDS011;66993;48.256;16.422;2023-07-02T10:52:53;5.6;;;2.8;;
77802;SDS011;66993;48.256;16.422;2023-07-02T10:58:03;5.4;;;2.8;;
77802;SDS011;66993;48.256;16.422;2023-07-02T11:02:56;5.5;;;2.9;;
77802;SDS011;66993;48.256;16.422;2023-07-02T11:08:07;4.6;;;2.7;;
77802;SDS011;66993;48.256;16.422;2023-07-02T11:13:09;3.9;;;2.7;;
77802;SDS011;66993;48.256;16.422;2023-07-02T11:23:01;4.2;;;2.5;;
77802;SDS011;66993;48.256;16.422;2023-07-02T11:28:02;4.7;;;2.8;;
77802;SDS011;66993;48.256;16.422;2023-07-02T11:33:04;5.1;;;2.8;;
77802;SDS011;66993;48.256;16.422;2023-07-02T11:38:04;6.0;;;2.8;;
77802;SDS011;66993;48.256;16.422;2023-07-02T11:43:06;4.9;;;2.8;;
77802;SDS011;66993;48.256;16.422;2023-07-02T11:48:07;4.1;;;2.4;;
77802;SDS011;66993;48.256;16.422;2023-07-02T11:53:08;5.3;;;2.6;;
77802;SDS011;66993;48.256;16.422;2023-07-02T11:58:09;4.8;;;3.0;;
77802;SDS011;66993;48.256;16.422;2023-07-02T12:03:11;5.1;;;2.9;;
77802;SDS011;66993;48.256;16.422;2023-07-02T12:08:12;6.0;;;3.7;;
77802;SDS011;66993;48.256;16.422;2023-07-02T12:13:13;5.8;;;3.0;;
77802;SDS011;66993;48.256;16.422;2023-07-02T12:18:14;6.5;;;2.8;;
77802;SDS011;66993;48.256;16.422;2023-07-02T12:23:16;4.9;;;2.9;;
77802;SDS011;66993;48.256;16.422;2023-07-02T12:28:17;5.3;;;2.5;;
77802;SDS011;66993;48.256;16.422;2023-07-02T12:33:18;8.3;;;3.0;;
77802;SDS011;66993;48.256;16.422;2023-07-02T12:38:19;4.7;;;2.5;;
77802;SDS011;66993;48.256;16.422;2023-07-02T12:43:21;4.1;;;2.2;;
77802;SDS011;66993;48.256;16.422;2023-07-02T12:48:22;3.4;;;2.1;;
77802;SDS011;66993;48.256;16.422;2023-07-02T12:53:24;4.8;;;2.5;;
77802;SDS011;66993;48.256;16.422;2023-07-02T12:58:24;4.6;;;2.3;;
77802;SDS011;66993;48.256;16.422;2023-07-02T13:03:25;4.5;;;2.2;;
77802;SDS011;66993;48.256;16.422;2023-07-02T13:08:27;3.7;;;2.0;;
77802;SDS011;66993;48.256;16.422;2023-07-02T13:13:28;4.2;;;2.2;;
77802;SDS011;66993;48.256;16.422;2023-07-02T13:18:29;4.6;;;2.3;;
77802;SDS011;66993;48.256;16.422;2023-07-02T13:23:30;3.8;;;2.1;;
77802;SDS011;66993;48.256;16.422;2023-07-02T13:28:32;4.0;;;2.0;;
77802;SDS011;66993;48.256;16.422;2023-07-02T13:33:33;3.8;;;1.8;;
77802;SDS011;66993;48.256;16.422;2023-07-02T13:38:34;5.2;;;2.0;;
77802;SDS011;66993;48.256;16.422;2023-07-02T13:43:35;3.8;;;1.9;;
77802;SDS011;66993;48.256;16.422;2023-07-02T13:48:37;4.6;;;1.9;;
77802;SDS011;66993;48.256;16.422;2023-07-02T13:53:38;3.5;;;1.7;;
77802;SDS011;66993;48.256;16.422;2023-07-02T13:58:46;3.4;;;1.8;;
77802;SDS011;66993;48.256;16.422;2023-07-02T14:03:40;3.5;;;1.6;;
77802;SDS011;66993;48.256;16.422;2023-07-02T14:08:42;4.0;;;2.0;;
77802;SDS011;66993;48.256;16.422;2023-07-02T14:13:43;4.2;;;1.8;;
77802;SDS011;66993;48.256;16.422;2023-07-02T14:18:45;3.6;;;1.6;;
77802;SDS011;66993;48.256;16.422;2023-07-02T14:23:45;3.9;;;1.8;;
77802;SDS011;66993;48.256;16.422;2023-07-02T14:28:47;3.6;;;1.8;;
77802;SDS011;66993;48.256;16.422;2023-07-02T14:33:48;3.9;;;2.3;;
77802;SDS011;66993;48.256;16.422;2023-07-02T14:38:49;4.7;;;2.4;;
77802;SDS011;66993;48.256;16.422;2023-07-02T14:43:50;4.2;;;2.0;;
77802;SDS011;66993;48.256;16.422;2023-07-02T14:48:51;4.3;;;1.9;;
77802;SDS011;66993;48.256;16.422;2023-07-02T14:53:53;3.7;;;1.9;;
77802;SDS011;66993;48.256;16.422;2023-07-02T14:58:54;4.7;;;2.1;;
77802;SDS011;66993;48.256;16.422;2023-07-02T15:03:55;5.9;;;2.2;;
77802;SDS011;66993;48.256;16.422;2023-07-02T15:08:57;5.2;;;2.7;;
77802;SDS011;66993;48.256;16.422;2023-07-02T15:13:58;4.8;;;2.2;;
77802;SDS011;66993;48.256;16.422;2023-07-02T15:18:59;4.6;;;2.3;;
77802;SDS011;66993;48.256;16.422;2023-07-02T15:24:00;4.0;;;2.2;;
77802;SDS011;66993;48.256;16.422;2023-07-02T15:29:02;4.7;;;2.3;;
77802;SDS011;66993;48.256;16.422;2023-07-02T15:34:03;4.5;;;2.1;;
77802;SDS011;66993;48.256;16.422;2023-07-02T15:39:04;4.3;;;2.3;;
77802;SDS011;66993;48.256;16.422;2023-07-02T15:44:05;5.0;;;2.2;;
77802;SDS011;66993;48.256;16.422;2023-07-02T15:49:06;5.2;;;3.1;;
77802;SDS011;66993;48.256;16.422;2023-07-02T15:54:07;4.9;;;2.7;;
77802;SDS011;66993;48.256;16.422;2023-07-02T15:59:09;7.9;;;2.8;;
77802;SDS011;66993;48.256;16.422;2023-07-02T16:04:10;5.4;;;2.6;;
77802;SDS011;66993;48.256;16.422;2023-07-02T16:09:11;4.4;;;2.2;;
77802;SDS011;66993;48.256;16.422;2023-07-02T16:14:13;5.3;;;2.6;;
77802;SDS011;66993;48.256;16.422;2023-07-02T16:19:14;7.0;;;2.4;;
77802;SDS011;66993;48.256;16.422;2023-07-02T16:24:16;4.5;;;2.2;;
77802;SDS011;66993;48.256;16.422;2023-07-02T16:29:17;4.1;;;2.4;;
77802;SDS011;66993;48.256;16.422;2023-07-02T16:34:17;4.2;;;2.7;;
77802;SDS011;66993;48.256;16.422;2023-07-02T16:39:20;7.1;;;3.7;;
77802;SDS011;66993;48.256;16.422;2023-07-02T16:44:21;7.3;;;3.1;;
77802;SDS011;66993;48.256;16.422;2023-07-02T16:49:22;4.9;;;2.6;;
77802;SDS011;66993;48.256;16.422;2023-07-02T16:54:23;5.8;;;3.0;;
77802;SDS011;66993;48.256;16.422;2023-07-02T16:59:24;5.8;;;2.8;;
77802;SDS011;66993;48.256;16.422;2023-07-02T17:04:26;5.7;;;3.2;;
77802;SDS011;66993;48.256;16.422;2023-07-02T17:09:27;11.7;;;5.0;;
77802;SDS011;66993;48.256;16.422;2023-07-02T17:14:27;6.1;;;2.9;;
77802;SDS011;66993;48.256;16.422;2023-07-02T17:19:29;5.3;;;3.1;;
77802;SDS011;66993;48.256;16.422;2023-07-02T17:24:31;5.3;;;3.0;;
77802;SDS011;66993;48.256;16.422;2023-07-02T17:29:31;5.7;;;3.4;;
77802;SDS011;66993;48.256;16.422;2023-07-02T17:34:33;6.4;;;3.1;;
77802;SDS011;66993;48.256;16.422;2023-07-02T17:39:34;6.8;;;3.5;;
77802;SDS011;66993;48.256;16.422;2023-07-02T17:44:36;6.5;;;3.6;;
77802;SDS011;66993;48.256;16.422;2023-07-02T17:49:37;9.6;;;3.2;;
77802;SDS011;66993;48.256;16.422;2023-07-02T17:54:38;5.8;;;3.2;;
77802;SDS011;66993;48.256;16.422;2023-07-02T17:59:39;6.4;;;3.7;;
77802;SDS011;66993;48.256;16.422;2023-07-02T18:04:40;6.4;;;3.4;;
77802;SDS011;66993;48.256;16.422;2023-07-02T18:09:42;6.7;;;3.6;;
77802;SDS011;66993;48.256;16.422;2023-07-02T18:14:43;6.7;;;3.5;;
77802;SDS011;66993;48.256;16.422;2023-07-02T18:19:44;6.6;;;3.6;;
77802;SDS011;66993;48.256;16.422;2023-07-02T18:24:45;7.1;;;4.1;;
77802;SDS011;66993;48.256;16.422;2023-07-02T18:29:47;7.1;;;3.7;;
77802;SDS011;66993;48.256;16.422;2023-07-02T18:34:47;7.8;;;4.0;;
77802;SDS011;66993;48.256;16.422;2023-07-02T18:39:49;7.4;;;4.1;;
77802;SDS011;66993;48.256;16.422;2023-07-02T18:44:52;7.8;;;4.5;;
77802;SDS011;66993;48.256;16.422;2023-07-02T18:49:52;6.5;;;3.7;;
77802;SDS011;66993;48.256;16.422;2023-07-02T18:54:52;9.2;;;4.1;;
77802;SDS011;66993;48.256;16.422;2023-07-02T18:59:54;8.7;;;4.4;;
77802;SDS011;66993;48.256;16.422;2023-07-02T19:04:55;7.4;;;4.2;;
77802;SDS011;66993;48.256;16.422;2023-07-02T19:09:57;9.7;;;4.4;;
77802;SDS011;66993;48.256;16.422;2023-07-02T19:14:58;7.5;;;4.3;;
77802;SDS011;66993;48.256;16.422;2023-07-02T19:19:59;7.9;;;4.4;;
77802;SDS011;66993;48.256;16.422;2023-07-02T19:25:00;7.4;;;4.5;;
77802;SDS011;66993;48.256;16.422;2023-07-02T19:30:02;7.5;;;4.5;;
77802;SDS011;66993;48.256;16.422;2023-07-02T19:35:03;9.4;;;4.8;;
77802;SDS011;66993;48.256;16.422;2023-07-02T19:40:05;7.9;;;4.3;;
77802;SDS011;66993;48.256;16.422;2023-07-02T19:45:05;7.6;;;4.1;;
77802;SDS011;66993;48.256;16.422;2023-07-02T19:50:07;8.3;;;4.4;;
77802;SDS011;66993;48.256;16.422;2023-07-02T19:55:08;8.9;;;4.6;;
77802;SDS011;66993;48.256;16.422;2023-07-02T20:00:09;9.2;;;4.9;;
77802;SDS011;66993;48.256;16.422;2023-07-02T20:05:11;9.1;;;4.9;;
77802;SDS011;66993;48.256;16.422;2023-07-02T20:10:11;10.9;;;5.1;;
77802;SDS011;66993;48.256;16.422;2023-07-02T20:15:13;9.3;;;4.9;;
77802;SDS011;66993;48.256;16.422;2023-07-02T20:20:14;7.6;;;4.5;;
77802;SDS011;66993;48.256;16.422;2023-07-02T20:25:15;9.6;;;5.1;;
77802;SDS011;66993;48.256;16.422;2023-07-02T20:30:16;8.9;;;4.4;;
77802;SDS011;66993;48.256;16.422;2023-07-02T20:35:17;8.9;;;4.9;;
77802;SDS011;66993;48.256;16.422;2023-07-02T20:40:19;9.7;;;5.2;;
77802;SDS011;66993;48.256;16.422;2023-07-02T20:45:20;9.6;;;5.0;;
77802;SDS011;66993;48.256;16.422;2023-07-02T20:50:22;9.0;;;5.1;;
77802;SDS011;66993;48.256;16.422;2023-07-02T20:55:22;10.8;;;5.2;;
77802;SDS011;66993;48.256;16.422;2023-07-02T21:00:24;8.5;;;4.6;;
77802;SDS011;66993;48.256;16.422;2023-07-02T21:05:25;9.4;;;4.9;;
77802;SDS011;66993;48.256;16.422;2023-07-02T21:10:26;10.5;;;5.4;;
77802;SDS011;66993;48.256;16.422;2023-07-02T21:15:27;10.2;;;5.9;;
77802;SDS011;66993;48.256;16.422;2023-07-02T21:20:29;10.7;;;5.5;;
77802;SDS011;66993;48.256;16.422;2023-07-02T21:25:30;10.3;;;5.5;;
77802;SDS011;66993;48.256;16.422;2023-07-02T21:30:31;10.8;;;5.3;;
77802;SDS011;66993;48.256;16.422;2023-07-02T21:35:32;10.1;;;5.3;;
77802;SDS011;66993;48.256;16.422;2023-07-02T21:40:33;10.0;;;5.4;;
77802;SDS011;66993;48.256;16.422;2023-07-02T21:45:35;11.2;;;5.7;;
77802;SDS011;66993;48.256;16.422;2023-07-02T21:50:36;10.9;;;5.4;;
77802;SDS011;66993;48.256;16.422;2023-07-02T21:55:37;14.4;;;6.1;;
77802;SDS011;66993;48.256;16.422;2023-07-02T22:00:39;12.1;;;5.7;;
77802;SDS011;66993;48.256;16.422;2023-07-02T22:05:40;11.4;;;5.4;;
77802;SDS011;66993;48.256;16.422;2023-07-02T22:10:41;18.6;;;7.1;;
77802;SDS011;66993;48.256;16.422;2023-07-02T22:15:42;13.0;;;6.5;;
77802;SDS011;66993;48.256;16.422;2023-07-02T22:20:43;12.2;;;5.9;;
77802;SDS011;66993;48.256;16.422;2023-07-02T22:25:45;13.4;;;5.7;;
77802;SDS011;66993;48.256;16.422;2023-07-02T22:30:46;13.6;;;6.7;;
77802;SDS011;66993;48.256;16.422;2023-07-02T22:35:47;11.6;;;6.1;;
77802;SDS011;66993;48.256;16.422;2023-07-02T22:40:48;12.0;;;6.3;;
77802;SDS011;66993;48.256;16.422;2023-07-02T22:45:50;13.0;;;6.9;;
77802;SDS011;66993;48.256;16.422;2023-07-02T22:50:51;12.0;;;6.3;;
77802;SDS011;66993;48.256;16.422;2023-07-02T22:55:52;12.5;;;6.6;;
77802;SDS011;66993;48.256;16.422;2023-07-02T23:00:54;11.6;;;7.0;;
77802;SDS011;66993;48.256;16.422;2023-07-02T23:05:55;12.1;;;6.6;;
77802;SDS011;66993;48.256;16.422;2023-07-02T23:10:56;11.5;;;6.1;;
77802;SDS011;66993;48.256;16.422;2023-07-02T23:15:57;12.8;;;6.2;;
77802;SDS011;66993;48.256;16.422;2023-07-02T23:20:58;11.9;;;7.0;;
77802;SDS011;66993;48.256;16.422;2023-07-02T23:26:00;13.3;;;7.2;;
77802;SDS011;66993;48.256;16.422;2023-07-02T23:31:01;12.7;;;6.8;;
77802;SDS011;66993;48.256;16.422;2023-07-02T23:36:02;13.2;;;6.8;;
77802;SDS011;66993;48.256;16.422;2023-07-02T23:41:03;13.2;;;6.5;;
77802;SDS011;66993;48.256;16.422;2023-07-02T23:46:05;14.7;;;7.1;;
77802;SDS011;66993;48.256;16.422;2023-07-02T23:51:06;12.5;;;6.7;;
77802;SDS011;66993;48.256;16.422;2023-07-02T23:56:07;11.4;;;6.1;;
